Ludlow, California
Current Conditions -  °F | °C
As of 9:56 AM on Tuesday 21 Oct 2014 (Local Time) from KNXP Reporting Station
Clear Clear  
Wind Chill: 69°   Ceiling: Unl
Heat Index: 69°   Visibility: 10mi
Dew Point: 47°   Wind: 13mph
Humidity: 45%   Direction: 300°WNW
Pressure: 30.01"   Gusts: NA
Location:  34.72°N, 116.16°W
Report Text: KNXP 211656Z 30011KT 10SM CLR 21/08 A3001 RMK AO2 SLP132 T02060083
Loading
Personal Weather Stations






























Interactive Weather Map
Tropical Storm Tracking
New forecast layout! Learn more

10-Day Weather Forecast

Advertisements
Track Severe Weather on mobile